sensor_id;sensor_type;location;lat;lon;timestamp;temperature;humidity
30308;DHT22;17114;52.314;8.910;2023-05-08T00:01:37;9.20;99.90
30308;DHT22;17114;52.314;8.910;2023-05-08T00:04:04;9.20;99.90
30308;DHT22;17114;52.314;8.910;2023-05-08T00:06:32;9.20;99.90
30308;DHT22;17114;52.314;8.910;2023-05-08T00:08:59;9.10;99.90
30308;DHT22;17114;52.314;8.910;2023-05-08T00:11:26;9.10;99.90
30308;DHT22;17114;52.314;8.910;2023-05-08T00:13:53;9.10;99.90
30308;DHT22;17114;52.314;8.910;2023-05-08T00:16:21;9.00;99.90
30308;DHT22;17114;52.314;8.910;2023-05-08T00:18:48;9.00;99.90
30308;DHT22;17114;52.314;8.910;2023-05-08T00:21:15;9.00;99.90
30308;DHT22;17114;52.314;8.910;2023-05-08T00:23:43;9.00;99.90
30308;DHT22;17114;52.314;8.910;2023-05-08T00:26:10;8.90;99.90
30308;DHT22;17114;52.314;8.910;2023-05-08T00:28:38;8.90;99.90
30308;DHT22;17114;52.314;8.910;2023-05-08T00:31:05;8.90;99.90
30308;DHT22;17114;52.314;8.910;2023-05-08T00:33:33;8.90;99.90
30308;DHT22;17114;52.314;8.910;2023-05-08T00:36:01;8.80;99.90
30308;DHT22;17114;52.314;8.910;2023-05-08T00:38:32;8.80;99.90
30308;DHT22;17114;52.314;8.910;2023-05-08T00:41:00;8.80;99.90
30308;DHT22;17114;52.314;8.910;2023-05-08T00:43:27;8.80;99.90
30308;DHT22;17114;52.314;8.910;2023-05-08T00:45:56;8.80;99.90
30308;DHT22;17114;52.314;8.910;2023-05-08T00:48:27;8.80;99.90
30308;DHT22;17114;52.314;8.910;2023-05-08T00:50:55;8.80;99.90
30308;DHT22;17114;52.314;8.910;2023-05-08T00:53:22;8.80;99.90
30308;DHT22;17114;52.314;8.910;2023-05-08T00:55:51;8.80;99.90
30308;DHT22;17114;52.314;8.910;2023-05-08T00:58:20;8.70;99.90
30308;DHT22;17114;52.314;8.910;2023-05-08T01:00:50;8.70;99.90
30308;DHT22;17114;52.314;8.910;2023-05-08T01:03:19;8.70;99.90
30308;DHT22;17114;52.314;8.910;2023-05-08T01:05:47;8.70;99.90
30308;DHT22;17114;52.314;8.910;2023-05-08T01:08:15;8.70;99.90
30308;DHT22;17114;52.314;8.910;2023-05-08T01:10:48;8.70;99.90
30308;DHT22;17114;52.314;8.910;2023-05-08T01:13:39;8.60;99.90
30308;DHT22;17114;52.314;8.910;2023-05-08T01:16:22;8.60;99.90
30308;DHT22;17114;52.314;8.910;2023-05-08T01:21:56;8.60;99.90
30308;DHT22;17114;52.314;8.910;2023-05-08T01:25:10;8.60;99.90
30308;DHT22;17114;52.314;8.910;2023-05-08T01:32:55;8.50;99.90
30308;DHT22;17114;52.314;8.910;2023-05-08T01:35:29;8.50;99.90
30308;DHT22;17114;52.314;8.910;2023-05-08T01:43:06;8.40;99.90
30308;DHT22;17114;52.314;8.910;2023-05-08T01:45:43;8.40;99.90
30308;DHT22;17114;52.314;8.910;2023-05-08T01:48:16;8.30;99.90
30308;DHT22;17114;52.314;8.910;2023-05-08T01:50:48;8.30;99.90
30308;DHT22;17114;52.314;8.910;2023-05-08T01:53:20;8.30;99.90
30308;DHT22;17114;52.314;8.910;2023-05-08T01:55:52;8.30;99.90
30308;DHT22;17114;52.314;8.910;2023-05-08T01:58:21;8.30;99.90
30308;DHT22;17114;52.314;8.910;2023-05-08T02:00:49;8.30;99.90
30308;DHT22;17114;52.314;8.910;2023-05-08T02:03:19;8.30;99.90
30308;DHT22;17114;52.314;8.910;2023-05-08T02:05:48;8.30;99.90
30308;DHT22;17114;52.314;8.910;2023-05-08T02:08:17;8.30;99.90
30308;DHT22;17114;52.314;8.910;2023-05-08T02:10:47;8.20;99.90
30308;DHT22;17114;52.314;8.910;2023-05-08T02:13:17;8.20;99.90
30308;DHT22;17114;52.314;8.910;2023-05-08T02:15:51;8.20;99.90
30308;DHT22;17114;52.314;8.910;2023-05-08T02:18:23;8.20;99.90
30308;DHT22;17114;52.314;8.910;2023-05-08T02:20:52;8.20;99.90
30308;DHT22;17114;52.314;8.910;2023-05-08T02:23:22;8.20;99.90
30308;DHT22;17114;52.314;8.910;2023-05-08T02:25:49;8.20;99.90
30308;DHT22;17114;52.314;8.910;2023-05-08T02:28:18;8.20;99.90
30308;DHT22;17114;52.314;8.910;2023-05-08T02:30:50;8.20;99.90
30308;DHT22;17114;52.314;8.910;2023-05-08T02:33:17;8.20;99.90
30308;DHT22;17114;52.314;8.910;2023-05-08T02:35:45;8.20;99.90
30308;DHT22;17114;52.314;8.910;2023-05-08T02:38:14;8.20;99.90
30308;DHT22;17114;52.314;8.910;2023-05-08T02:40:46;8.20;99.90
30308;DHT22;17114;52.314;8.910;2023-05-08T02:43:14;8.20;99.90
30308;DHT22;17114;52.314;8.910;2023-05-08T02:48:43;8.20;99.90
30308;DHT22;17114;52.314;8.910;2023-05-08T02:51:29;8.20;99.90
30308;DHT22;17114;52.314;8.910;2023-05-08T02:54:10;8.20;99.90
30308;DHT22;17114;52.314;8.910;2023-05-08T02:56:49;8.20;99.90
30308;DHT22;17114;52.314;8.910;2023-05-08T02:59:23;8.10;99.90
30308;DHT22;17114;52.314;8.910;2023-05-08T03:02:02;8.10;99.90
30308;DHT22;17114;52.314;8.910;2023-05-08T03:04:40;8.10;99.90
30308;DHT22;17114;52.314;8.910;2023-05-08T03:07:11;8.10;99.90
30308;DHT22;17114;52.314;8.910;2023-05-08T03:09:43;8.00;99.90
30308;DHT22;17114;52.314;8.910;2023-05-08T03:12:17;8.00;99.90
30308;DHT22;17114;52.314;8.910;2023-05-08T03:14:57;8.00;99.90
30308;DHT22;17114;52.314;8.910;2023-05-08T03:17:27;7.90;99.90
30308;DHT22;17114;52.314;8.910;2023-05-08T03:20:02;7.90;99.90
30308;DHT22;17114;52.314;8.910;2023-05-08T03:22:30;7.90;99.90
30308;DHT22;17114;52.314;8.910;2023-05-08T03:25:00;7.90;99.90
30308;DHT22;17114;52.314;8.910;2023-05-08T03:27:28;7.90;99.90
30308;DHT22;17114;52.314;8.910;2023-05-08T03:29:57;7.80;99.90
30308;DHT22;17114;52.314;8.910;2023-05-08T03:32:26;7.80;99.90
30308;DHT22;17114;52.314;8.910;2023-05-08T03:34:54;7.80;99.90
30308;DHT22;17114;52.314;8.910;2023-05-08T03:37:28;7.80;99.90
30308;DHT22;17114;52.314;8.910;2023-05-08T03:39:56;7.80;99.90
30308;DHT22;17114;52.314;8.910;2023-05-08T03:42:24;7.80;99.90
30308;DHT22;17114;52.314;8.910;2023-05-08T03:44:53;7.80;99.90
30308;DHT22;17114;52.314;8.910;2023-05-08T03:47:21;7.80;99.90
30308;DHT22;17114;52.314;8.910;2023-05-08T03:49:49;7.80;99.90
30308;DHT22;17114;52.314;8.910;2023-05-08T03:52:16;7.80;99.90
30308;DHT22;17114;52.314;8.910;2023-05-08T03:54:43;7.80;99.90
30308;DHT22;17114;52.314;8.910;2023-05-08T03:57:10;7.70;99.90
30308;DHT22;17114;52.314;8.910;2023-05-08T04:04:59;7.80;99.90
30308;DHT22;17114;52.314;8.910;2023-05-08T04:07:37;7.80;99.90
30308;DHT22;17114;52.314;8.910;2023-05-08T04:10:15;7.80;99.90
30308;DHT22;17114;52.314;8.910;2023-05-08T04:15:29;7.80;99.90
30308;DHT22;17114;52.314;8.910;2023-05-08T04:18:13;7.80;99.90
30308;DHT22;17114;52.314;8.910;2023-05-08T04:20:46;7.80;99.90
30308;DHT22;17114;52.314;8.910;2023-05-08T04:23:17;7.90;99.90
30308;DHT22;17114;52.314;8.910;2023-05-08T04:25:46;8.20;99.90
30308;DHT22;17114;52.314;8.910;2023-05-08T04:28:15;8.40;99.90
30308;DHT22;17114;52.314;8.910;2023-05-08T04:30:44;8.60;99.90
30308;DHT22;17114;52.314;8.910;2023-05-08T04:33:13;8.90;99.90
30308;DHT22;17114;52.314;8.910;2023-05-08T04:35:40;9.10;99.90
30308;DHT22;17114;52.314;8.910;2023-05-08T04:38:08;9.30;99.90
30308;DHT22;17114;52.314;8.910;2023-05-08T04:40:35;9.50;99.90
30308;DHT22;17114;52.314;8.910;2023-05-08T04:43:02;9.80;99.90
30308;DHT22;17114;52.314;8.910;2023-05-08T04:45:29;10.20;99.90
30308;DHT22;17114;52.314;8.910;2023-05-08T04:47:57;10.40;99.90
30308;DHT22;17114;52.314;8.910;2023-05-08T04:50:24;10.70;99.90
30308;DHT22;17114;52.314;8.910;2023-05-08T04:52:51;10.60;99.90
30308;DHT22;17114;52.314;8.910;2023-05-08T04:55:19;10.60;99.90
30308;DHT22;17114;52.314;8.910;2023-05-08T04:57:45;10.80;99.90
30308;DHT22;17114;52.314;8.910;2023-05-08T05:00:13;11.20;99.90
30308;DHT22;17114;52.314;8.910;2023-05-08T05:02:40;11.50;99.90
30308;DHT22;17114;52.314;8.910;2023-05-08T05:05:07;11.90;99.90
30308;DHT22;17114;52.314;8.910;2023-05-08T05:07:34;12.10;99.90
30308;DHT22;17114;52.314;8.910;2023-05-08T05:10:02;12.40;99.90
30308;DHT22;17114;52.314;8.910;2023-05-08T05:12:29;12.80;99.90
30308;DHT22;17114;52.314;8.910;2023-05-08T05:14:56;13.20;99.90
30308;DHT22;17114;52.314;8.910;2023-05-08T05:17:24;13.40;99.90
30308;DHT22;17114;52.314;8.910;2023-05-08T05:19:51;13.60;99.90
30308;DHT22;17114;52.314;8.910;2023-05-08T05:22:19;13.90;99.90
30308;DHT22;17114;52.314;8.910;2023-05-08T05:24:46;14.10;99.90
30308;DHT22;17114;52.314;8.910;2023-05-08T05:27:13;14.20;99.90
30308;DHT22;17114;52.314;8.910;2023-05-08T05:29:40;14.60;99.90
30308;DHT22;17114;52.314;8.910;2023-05-08T05:32:08;15.00;99.90
30308;DHT22;17114;52.314;8.910;2023-05-08T05:34:37;15.20;99.90
30308;DHT22;17114;52.314;8.910;2023-05-08T05:37:04;15.20;99.90
30308;DHT22;17114;52.314;8.910;2023-05-08T05:39:31;15.30;99.90
30308;DHT22;17114;52.314;8.910;2023-05-08T05:41:58;15.40;99.90
30308;DHT22;17114;52.314;8.910;2023-05-08T05:44:25;15.50;99.90
30308;DHT22;17114;52.314;8.910;2023-05-08T05:46:53;16.00;99.90
30308;DHT22;17114;52.314;8.910;2023-05-08T05:49:20;16.40;99.90
30308;DHT22;17114;52.314;8.910;2023-05-08T05:51:47;16.70;99.90
30308;DHT22;17114;52.314;8.910;2023-05-08T05:54:14;16.90;99.90
30308;DHT22;17114;52.314;8.910;2023-05-08T05:56:41;17.00;99.90
30308;DHT22;17114;52.314;8.910;2023-05-08T05:59:08;17.30;99.90
30308;DHT22;17114;52.314;8.910;2023-05-08T06:01:35;17.70;99.90
30308;DHT22;17114;52.314;8.910;2023-05-08T06:04:03;17.80;99.90
30308;DHT22;17114;52.314;8.910;2023-05-08T06:06:30;17.80;99.90
30308;DHT22;17114;52.314;8.910;2023-05-08T06:08:57;17.60;99.90
30308;DHT22;17114;52.314;8.910;2023-05-08T06:11:24;17.90;99.90
30308;DHT22;17114;52.314;8.910;2023-05-08T06:13:52;18.20;99.90
30308;DHT22;17114;52.314;8.910;2023-05-08T06:16:19;18.40;99.90
30308;DHT22;17114;52.314;8.910;2023-05-08T06:18:49;18.90;99.90
30308;DHT22;17114;52.314;8.910;2023-05-08T06:21:16;19.10;99.90
30308;DHT22;17114;52.314;8.910;2023-05-08T06:23:43;18.90;99.90
30308;DHT22;17114;52.314;8.910;2023-05-08T06:26:11;18.70;99.90
30308;DHT22;17114;52.314;8.910;2023-05-08T06:28:38;18.30;99.90
30308;DHT22;17114;52.314;8.910;2023-05-08T06:31:05;18.50;99.90
30308;DHT22;17114;52.314;8.910;2023-05-08T06:33:32;18.50;99.90
30308;DHT22;17114;52.314;8.910;2023-05-08T06:35:59;18.80;99.90
30308;DHT22;17114;52.314;8.910;2023-05-08T06:38:26;19.30;99.90
30308;DHT22;17114;52.314;8.910;2023-05-08T06:40:53;19.50;99.90
30308;DHT22;17114;52.314;8.910;2023-05-08T06:43:21;19.10;99.90
30308;DHT22;17114;52.314;8.910;2023-05-08T06:45:48;19.30;99.90
30308;DHT22;17114;52.314;8.910;2023-05-08T06:48:15;19.10;99.90
30308;DHT22;17114;52.314;8.910;2023-05-08T06:50:42;19.40;99.90
30308;DHT22;17114;52.314;8.910;2023-05-08T06:53:09;19.90;99.90
30308;DHT22;17114;52.314;8.910;2023-05-08T06:55:37;20.50;99.90
30308;DHT22;17114;52.314;8.910;2023-05-08T06:58:04;20.60;99.90
30308;DHT22;17114;52.314;8.910;2023-05-08T07:00:31;20.80;99.90
30308;DHT22;17114;52.314;8.910;2023-05-08T07:02:58;20.70;99.90
30308;DHT22;17114;52.314;8.910;2023-05-08T07:05:26;21.00;99.90
30308;DHT22;17114;52.314;8.910;2023-05-08T07:07:53;21.30;99.90
30308;DHT22;17114;52.314;8.910;2023-05-08T07:10:21;20.70;99.90
30308;DHT22;17114;52.314;8.910;2023-05-08T07:12:49;20.60;99.90
30308;DHT22;17114;52.314;8.910;2023-05-08T07:15:17;20.60;99.90
30308;DHT22;17114;52.314;8.910;2023-05-08T07:17:50;20.80;99.90
30308;DHT22;17114;52.314;8.910;2023-05-08T07:20:17;20.70;99.90
30308;DHT22;17114;52.314;8.910;2023-05-08T07:22:44;20.80;99.90
30308;DHT22;17114;52.314;8.910;2023-05-08T07:25:12;20.60;99.90
30308;DHT22;17114;52.314;8.910;2023-05-08T07:27:40;20.40;99.90
30308;DHT22;17114;52.314;8.910;2023-05-08T07:30:07;20.70;99.90
30308;DHT22;17114;52.314;8.910;2023-05-08T07:32:35;21.00;99.90
30308;DHT22;17114;52.314;8.910;2023-05-08T07:35:02;21.00;99.90
30308;DHT22;17114;52.314;8.910;2023-05-08T07:37:29;21.10;99.90
30308;DHT22;17114;52.314;8.910;2023-05-08T07:39:56;21.10;99.90
30308;DHT22;17114;52.314;8.910;2023-05-08T07:42:23;21.90;99.90
30308;DHT22;17114;52.314;8.910;2023-05-08T07:44:50;22.00;99.90
30308;DHT22;17114;52.314;8.910;2023-05-08T07:47:21;22.50;99.90
30308;DHT22;17114;52.314;8.910;2023-05-08T07:49:48;22.70;99.90
30308;DHT22;17114;52.314;8.910;2023-05-08T07:52:16;22.40;99.90
30308;DHT22;17114;52.314;8.910;2023-05-08T07:54:45;21.80;99.90
30308;DHT22;17114;52.314;8.910;2023-05-08T07:57:12;21.70;99.90
30308;DHT22;17114;52.314;8.910;2023-05-08T07:59:41;21.50;99.90
30308;DHT22;17114;52.314;8.910;2023-05-08T08:02:08;20.90;99.90
30308;DHT22;17114;52.314;8.910;2023-05-08T08:04:35;20.80;99.90
30308;DHT22;17114;52.314;8.910;2023-05-08T08:07:02;20.80;99.90
30308;DHT22;17114;52.314;8.910;2023-05-08T08:09:30;20.80;99.90
30308;DHT22;17114;52.314;8.910;2023-05-08T08:11:58;21.30;99.90
30308;DHT22;17114;52.314;8.910;2023-05-08T08:14:25;21.30;99.90
30308;DHT22;17114;52.314;8.910;2023-05-08T08:16:53;21.60;99.90
30308;DHT22;17114;52.314;8.910;2023-05-08T08:19:21;21.80;99.90
30308;DHT22;17114;52.314;8.910;2023-05-08T08:21:48;22.20;99.90
30308;DHT22;17114;52.314;8.910;2023-05-08T08:24:15;22.50;99.90
30308;DHT22;17114;52.314;8.910;2023-05-08T08:26:42;22.60;99.90
30308;DHT22;17114;52.314;8.910;2023-05-08T08:29:09;22.50;99.90
30308;DHT22;17114;52.314;8.910;2023-05-08T08:31:36;22.40;99.90
30308;DHT22;17114;52.314;8.910;2023-05-08T08:34:04;22.00;99.90
30308;DHT22;17114;52.314;8.910;2023-05-08T08:36:32;22.00;99.90
30308;DHT22;17114;52.314;8.910;2023-05-08T08:38:59;22.00;99.90
30308;DHT22;17114;52.314;8.910;2023-05-08T08:41:26;21.90;99.90
30308;DHT22;17114;52.314;8.910;2023-05-08T08:43:54;22.10;99.90
30308;DHT22;17114;52.314;8.910;2023-05-08T08:46:26;22.10;99.90
30308;DHT22;17114;52.314;8.910;2023-05-08T08:48:55;22.60;99.90
30308;DHT22;17114;52.314;8.910;2023-05-08T08:51:31;22.00;99.90
30308;DHT22;17114;52.314;8.910;2023-05-08T08:54:12;21.60;99.90
30308;DHT22;17114;52.314;8.910;2023-05-08T08:56:41;21.90;99.90
30308;DHT22;17114;52.314;8.910;2023-05-08T08:59:15;22.50;99.90
30308;DHT22;17114;52.314;8.910;2023-05-08T09:01:46;22.80;99.90
30308;DHT22;17114;52.314;8.910;2023-05-08T09:04:15;23.20;99.90
30308;DHT22;17114;52.314;8.910;2023-05-08T09:06:44;23.50;99.90
30308;DHT22;17114;52.314;8.910;2023-05-08T09:09:12;23.70;99.90
30308;DHT22;17114;52.314;8.910;2023-05-08T09:11:39;23.60;99.90
30308;DHT22;17114;52.314;8.910;2023-05-08T09:14:07;23.70;99.90
30308;DHT22;17114;52.314;8.910;2023-05-08T09:16:35;23.50;99.90
30308;DHT22;17114;52.314;8.910;2023-05-08T09:19:03;23.70;99.90
30308;DHT22;17114;52.314;8.910;2023-05-08T09:21:31;23.80;99.90
30308;DHT22;17114;52.314;8.910;2023-05-08T09:24:02;23.90;99.90
30308;DHT22;17114;52.314;8.910;2023-05-08T09:29:17;23.60;99.90
30308;DHT22;17114;52.314;8.910;2023-05-08T09:31:47;23.80;99.90
30308;DHT22;17114;52.314;8.910;2023-05-08T09:34:28;23.10;99.90
30308;DHT22;17114;52.314;8.910;2023-05-08T09:37:16;22.40;99.90
30308;DHT22;17114;52.314;8.910;2023-05-08T09:39:43;22.50;99.90
30308;DHT22;17114;52.314;8.910;2023-05-08T09:42:13;22.60;99.90
30308;DHT22;17114;52.314;8.910;2023-05-08T09:44:47;22.60;99.90
30308;DHT22;17114;52.314;8.910;2023-05-08T09:47:20;22.50;99.90
30308;DHT22;17114;52.314;8.910;2023-05-08T09:50:08;22.60;99.90
30308;DHT22;17114;52.314;8.910;2023-05-08T09:52:37;22.80;99.90
30308;DHT22;17114;52.314;8.910;2023-05-08T09:55:06;23.00;99.90
30308;DHT22;17114;52.314;8.910;2023-05-08T09:57:50;23.10;99.90
30308;DHT22;17114;52.314;8.910;2023-05-08T10:00:18;23.10;99.90
30308;DHT22;17114;52.314;8.910;2023-05-08T10:05:27;23.10;99.90
30308;DHT22;17114;52.314;8.910;2023-05-08T10:07:57;23.20;99.90
30308;DHT22;17114;52.314;8.910;2023-05-08T10:10:26;23.50;99.90
30308;DHT22;17114;52.314;8.910;2023-05-08T10:12:54;23.50;99.90
30308;DHT22;17114;52.314;8.910;2023-05-08T10:15:24;23.30;99.90
30308;DHT22;17114;52.314;8.910;2023-05-08T10:17:59;23.60;99.90
30308;DHT22;17114;52.314;8.910;2023-05-08T10:20:29;23.40;99.90
30308;DHT22;17114;52.314;8.910;2023-05-08T10:22:57;23.40;99.90
30308;DHT22;17114;52.314;8.910;2023-05-08T10:25:25;23.20;99.90
30308;DHT22;17114;52.314;8.910;2023-05-08T10:28:15;23.40;99.90
30308;DHT22;17114;52.314;8.910;2023-05-08T10:30:48;23.70;99.90
30308;DHT22;17114;52.314;8.910;2023-05-08T10:33:20;23.80;99.90
30308;DHT22;17114;52.314;8.910;2023-05-08T10:35:47;23.60;99.90
30308;DHT22;17114;52.314;8.910;2023-05-08T10:38:15;23.50;99.90
30308;DHT22;17114;52.314;8.910;2023-05-08T10:40:43;23.70;99.90
30308;DHT22;17114;52.314;8.910;2023-05-08T10:43:11;23.30;99.90
30308;DHT22;17114;52.314;8.910;2023-05-08T10:45:38;23.50;99.90
30308;DHT22;17114;52.314;8.910;2023-05-08T10:48:32;23.40;99.90
30308;DHT22;17114;52.314;8.910;2023-05-08T10:51:20;23.50;99.90
30308;DHT22;17114;52.314;8.910;2023-05-08T10:54:04;23.40;99.90
30308;DHT22;17114;52.314;8.910;2023-05-08T10:56:37;23.60;99.90
30308;DHT22;17114;52.314;8.910;2023-05-08T10:59:05;23.50;99.90
30308;DHT22;17114;52.314;8.910;2023-05-08T11:01:32;23.60;99.90
30308;DHT22;17114;52.314;8.910;2023-05-08T11:04:19;23.60;99.90
30308;DHT22;17114;52.314;8.910;2023-05-08T11:06:48;23.60;99.90
30308;DHT22;17114;52.314;8.910;2023-05-08T11:09:27;23.60;99.90
30308;DHT22;17114;52.314;8.910;2023-05-08T11:12:07;23.60;99.90
30308;DHT22;17114;52.314;8.910;2023-05-08T11:14:43;23.80;99.90
30308;DHT22;17114;52.314;8.910;2023-05-08T11:17:23;23.80;99.90
30308;DHT22;17114;52.314;8.910;2023-05-08T11:19:59;24.10;99.90
30308;DHT22;17114;52.314;8.910;2023-05-08T11:22:35;24.20;99.90
30308;DHT22;17114;52.314;8.910;2023-05-08T11:25:09;24.40;99.90
30308;DHT22;17114;52.314;8.910;2023-05-08T11:30:37;24.20;99.90
30308;DHT22;17114;52.314;8.910;2023-05-08T11:35:43;24.30;99.90
30308;DHT22;17114;52.314;8.910;2023-05-08T11:38:34;24.40;99.90
30308;DHT22;17114;52.314;8.910;2023-05-08T11:43:38;24.30;99.90
30308;DHT22;17114;52.314;8.910;2023-05-08T11:46:15;24.50;99.90
30308;DHT22;17114;52.314;8.910;2023-05-08T11:48:44;24.80;99.90
30308;DHT22;17114;52.314;8.910;2023-05-08T11:51:11;24.70;99.90
30308;DHT22;17114;52.314;8.910;2023-05-08T11:53:39;24.50;99.90
30308;DHT22;17114;52.314;8.910;2023-05-08T11:56:08;24.10;99.90
30308;DHT22;17114;52.314;8.910;2023-05-08T11:58:41;23.90;99.90
30308;DHT22;17114;52.314;8.910;2023-05-08T12:01:09;24.20;99.90
30308;DHT22;17114;52.314;8.910;2023-05-08T12:03:36;24.40;99.90
30308;DHT22;17114;52.314;8.910;2023-05-08T12:06:07;24.40;99.90
30308;DHT22;17114;52.314;8.910;2023-05-08T12:08:37;24.30;99.90
30308;DHT22;17114;52.314;8.910;2023-05-08T12:11:05;24.50;99.90
30308;DHT22;17114;52.314;8.910;2023-05-08T12:13:32;24.40;99.90
30308;DHT22;17114;52.314;8.910;2023-05-08T12:16:00;24.40;99.90
30308;DHT22;17114;52.314;8.910;2023-05-08T12:18:27;24.40;99.90
30308;DHT22;17114;52.314;8.910;2023-05-08T12:20:58;24.60;99.90
30308;DHT22;17114;52.314;8.910;2023-05-08T12:23:28;24.90;99.90
30308;DHT22;17114;52.314;8.910;2023-05-08T12:26:00;24.90;99.90
30308;DHT22;17114;52.314;8.910;2023-05-08T12:28:28;24.80;99.90
30308;DHT22;17114;52.314;8.910;2023-05-08T12:30:56;24.80;99.90
30308;DHT22;17114;52.314;8.910;2023-05-08T12:33:24;24.80;99.90
30308;DHT22;17114;52.314;8.910;2023-05-08T12:35:51;24.90;99.90
30308;DHT22;17114;52.314;8.910;2023-05-08T12:38:25;25.10;99.90
30308;DHT22;17114;52.314;8.910;2023-05-08T12:40:52;25.20;99.90
30308;DHT22;17114;52.314;8.910;2023-05-08T12:43:34;25.10;99.90
30308;DHT22;17114;52.314;8.910;2023-05-08T12:46:09;25.00;99.90
30308;DHT22;17114;52.314;8.910;2023-05-08T12:48:37;25.00;99.90
30308;DHT22;17114;52.314;8.910;2023-05-08T12:51:05;24.70;99.90
30308;DHT22;17114;52.314;8.910;2023-05-08T12:53:33;24.70;99.90
30308;DHT22;17114;52.314;8.910;2023-05-08T12:56:03;24.50;99.90
30308;DHT22;17114;52.314;8.910;2023-05-08T12:58:33;24.40;99.90
30308;DHT22;17114;52.314;8.910;2023-05-08T13:01:09;24.40;99.90
30308;DHT22;17114;52.314;8.910;2023-05-08T13:03:40;24.40;99.90
30308;DHT22;17114;52.314;8.910;2023-05-08T13:06:21;24.40;99.90
30308;DHT22;17114;52.314;8.910;2023-05-08T13:08:53;24.30;99.90
30308;DHT22;17114;52.314;8.910;2023-05-08T13:11:31;24.20;99.90
30308;DHT22;17114;52.314;8.910;2023-05-08T13:14:00;24.10;99.90
30308;DHT22;17114;52.314;8.910;2023-05-08T13:16:27;23.90;99.90
30308;DHT22;17114;52.314;8.910;2023-05-08T13:18:54;23.60;99.90
30308;DHT22;17114;52.314;8.910;2023-05-08T13:21:22;23.30;99.90
30308;DHT22;17114;52.314;8.910;2023-05-08T13:23:51;23.20;99.90
30308;DHT22;17114;52.314;8.910;2023-05-08T13:26:20;23.20;99.90
30308;DHT22;17114;52.314;8.910;2023-05-08T13:28:48;23.10;99.90
30308;DHT22;17114;52.314;8.910;2023-05-08T13:31:21;23.20;99.90
30308;DHT22;17114;52.314;8.910;2023-05-08T13:33:49;23.20;99.90
30308;DHT22;17114;52.314;8.910;2023-05-08T13:36:16;23.20;99.90
30308;DHT22;17114;52.314;8.910;2023-05-08T13:38:43;23.20;99.90
30308;DHT22;17114;52.314;8.910;2023-05-08T13:41:10;23.20;99.90
30308;DHT22;17114;52.314;8.910;2023-05-08T13:43:37;23.20;99.90
30308;DHT22;17114;52.314;8.910;2023-05-08T13:46:04;23.20;99.90
30308;DHT22;17114;52.314;8.910;2023-05-08T13:48:32;23.10;99.90
30308;DHT22;17114;52.314;8.910;2023-05-08T13:50:59;23.00;99.90
30308;DHT22;17114;52.314;8.910;2023-05-08T13:53:26;23.10;99.90
30308;DHT22;17114;52.314;8.910;2023-05-08T13:55:54;23.20;99.90
30308;DHT22;17114;52.314;8.910;2023-05-08T13:58:21;23.30;99.90
30308;DHT22;17114;52.314;8.910;2023-05-08T14:00:48;23.10;99.90
30308;DHT22;17114;52.314;8.910;2023-05-08T14:03:15;22.70;99.90
30308;DHT22;17114;52.314;8.910;2023-05-08T14:05:42;22.30;99.90
30308;DHT22;17114;52.314;8.910;2023-05-08T14:08:10;21.90;99.90
30308;DHT22;17114;52.314;8.910;2023-05-08T14:10:37;21.50;99.90
30308;DHT22;17114;52.314;8.910;2023-05-08T14:13:06;21.40;99.90
30308;DHT22;17114;52.314;8.910;2023-05-08T14:15:33;21.40;99.90
30308;DHT22;17114;52.314;8.910;2023-05-08T14:18:03;21.40;99.90
30308;DHT22;17114;52.314;8.910;2023-05-08T14:20:32;21.30;99.90
30308;DHT22;17114;52.314;8.910;2023-05-08T14:22:59;21.30;99.90
30308;DHT22;17114;52.314;8.910;2023-05-08T14:25:26;21.50;99.90
30308;DHT22;17114;52.314;8.910;2023-05-08T14:27:53;21.50;99.90
30308;DHT22;17114;52.314;8.910;2023-05-08T14:30:21;21.50;99.90
30308;DHT22;17114;52.314;8.910;2023-05-08T14:32:48;21.50;99.90
30308;DHT22;17114;52.314;8.910;2023-05-08T14:35:16;21.50;99.90
30308;DHT22;17114;52.314;8.910;2023-05-08T14:37:43;21.30;99.90
30308;DHT22;17114;52.314;8.910;2023-05-08T14:40:10;21.30;99.90
30308;DHT22;17114;52.314;8.910;2023-05-08T14:42:37;21.40;99.90
30308;DHT22;17114;52.314;8.910;2023-05-08T14:45:05;21.50;99.90
30308;DHT22;17114;52.314;8.910;2023-05-08T14:47:32;21.50;99.90
30308;DHT22;17114;52.314;8.910;2023-05-08T14:49:59;21.40;99.90
30308;DHT22;17114;52.314;8.910;2023-05-08T14:52:26;21.30;99.90
30308;DHT22;17114;52.314;8.910;2023-05-08T14:54:53;21.30;99.90
30308;DHT22;17114;52.314;8.910;2023-05-08T14:57:20;21.30;99.90
30308;DHT22;17114;52.314;8.910;2023-05-08T14:59:47;21.20;99.90
30308;DHT22;17114;52.314;8.910;2023-05-08T15:02:22;21.20;99.90
30308;DHT22;17114;52.314;8.910;2023-05-08T15:04:50;21.20;99.90
30308;DHT22;17114;52.314;8.910;2023-05-08T15:07:17;21.30;99.90
30308;DHT22;17114;52.314;8.910;2023-05-08T15:09:44;21.30;99.90
30308;DHT22;17114;52.314;8.910;2023-05-08T15:12:11;21.40;99.90
30308;DHT22;17114;52.314;8.910;2023-05-08T15:14:38;21.40;99.90
30308;DHT22;17114;52.314;8.910;2023-05-08T15:17:05;21.50;99.90
30308;DHT22;17114;52.314;8.910;2023-05-08T15:19:32;21.50;99.90
30308;DHT22;17114;52.314;8.910;2023-05-08T15:22:00;21.50;99.90
30308;DHT22;17114;52.314;8.910;2023-05-08T15:24:27;21.50;99.90
30308;DHT22;17114;52.314;8.910;2023-05-08T15:26:55;21.60;99.90
30308;DHT22;17114;52.314;8.910;2023-05-08T15:29:22;21.60;99.90
30308;DHT22;17114;52.314;8.910;2023-05-08T15:31:49;21.70;99.90
30308;DHT22;17114;52.314;8.910;2023-05-08T15:34:17;21.70;99.90
30308;DHT22;17114;52.314;8.910;2023-05-08T15:36:44;21.80;99.90
30308;DHT22;17114;52.314;8.910;2023-05-08T15:39:11;21.80;99.90
30308;DHT22;17114;52.314;8.910;2023-05-08T15:41:38;21.80;99.90
30308;DHT22;17114;52.314;8.910;2023-05-08T15:44:07;21.70;99.90
30308;DHT22;17114;52.314;8.910;2023-05-08T15:46:34;21.70;99.90
30308;DHT22;17114;52.314;8.910;2023-05-08T15:49:01;21.70;99.90
30308;DHT22;17114;52.314;8.910;2023-05-08T15:51:29;21.60;99.90
30308;DHT22;17114;52.314;8.910;2023-05-08T15:53:56;21.60;99.90
30308;DHT22;17114;52.314;8.910;2023-05-08T15:56:23;21.60;99.90
30308;DHT22;17114;52.314;8.910;2023-05-08T15:58:52;21.60;99.90
30308;DHT22;17114;52.314;8.910;2023-05-08T16:01:20;21.50;99.90
30308;DHT22;17114;52.314;8.910;2023-05-08T16:03:47;21.50;99.90
30308;DHT22;17114;52.314;8.910;2023-05-08T16:06:14;21.50;99.90
30308;DHT22;17114;52.314;8.910;2023-05-08T16:08:42;21.40;99.90
30308;DHT22;17114;52.314;8.910;2023-05-08T16:11:10;21.40;99.90
30308;DHT22;17114;52.314;8.910;2023-05-08T16:13:37;21.40;99.90
30308;DHT22;17114;52.314;8.910;2023-05-08T16:16:05;21.50;99.90
30308;DHT22;17114;52.314;8.910;2023-05-08T16:18:32;21.50;99.90
30308;DHT22;17114;52.314;8.910;2023-05-08T16:20:59;21.40;99.90
30308;DHT22;17114;52.314;8.910;2023-05-08T16:23:26;21.40;99.90
30308;DHT22;17114;52.314;8.910;2023-05-08T16:25:53;21.40;99.90
30308;DHT22;17114;52.314;8.910;2023-05-08T16:28:20;21.30;99.90